Time;durP1;ratioP1;P1;durP2;ratioP2;P2;SDS_P1;SDS_P2;PMS_P1;PMS_P2;Temp;Humidity;BMP_temperature;BMP_pressure;BME280_temperature;BME280_humidity;BME280_pressure;Samples;Min_cycle;Max_cycle;Signal;HPM_P1;HPM_P2
2022/06/05 00:00:29;;;;;;;6.73;4.43;;;;;;;21.44;64.63;98574.00;5093922;28;20215;-53
2022/06/05 00:03:09;;;;;;;4.73;4.10;;;;;;;21.46;64.40;98574.59;5092384;28;20278;-52
2022/06/05 00:05:45;;;;;;;6.47;3.90;;;;;;;21.43;64.08;98559.13;5092598;28;20198;-52
2022/06/05 00:08:19;;;;;;;6.77;3.80;;;;;;;21.44;64.64;98551.94;5092777;28;20214;-52
2022/06/05 00:10:52;;;;;;;3.90;3.40;;;;;;;21.45;63.73;98546.44;5093617;28;20282;-54
2022/06/05 00:13:28;;;;;;;5.70;4.03;;;;;;;21.50;63.46;98545.75;5093262;28;20540;-52
2022/06/05 00:15:56;;;;;;;7.67;3.80;;;;;;;21.51;63.85;98553.50;5094345;28;20236;-52
2022/06/05 00:18:25;;;;;;;4.60;3.83;;;;;;;21.47;63.85;98564.78;5094478;28;20226;-52
2022/06/05 00:20:53;;;;;;;9.17;4.10;;;;;;;21.40;64.57;98570.19;5094138;28;20603;-55
2022/06/05 00:23:21;;;;;;;4.00;3.60;;;;;;;21.32;65.27;98583.75;5094739;28;20192;-54
2022/06/05 00:25:56;;;;;;;4.43;3.80;;;;;;;21.22;65.92;98578.94;5093318;28;20208;-53
2022/06/05 00:28:33;;;;;;;6.87;5.40;;;;;;;21.17;67.43;98586.78;5092853;28;20207;-53
2022/06/05 00:31:12;;;;;;;8.27;5.13;;;;;;;20.86;69.11;98599.94;5093275;28;20188;-53
2022/06/05 00:33:42;;;;;;;8.23;5.73;;;;;;;20.67;70.45;98612.31;5093089;28;20696;-53
2022/06/05 00:36:22;;;;;;;8.77;6.20;;;;;;;20.45;71.96;98612.69;5092577;28;20216;-54
2022/06/05 00:39:00;;;;;;;7.27;5.80;;;;;;;20.37;72.26;98612.97;5092583;28;20212;-54
2022/06/05 00:41:56;;;;;;;6.20;5.67;;;;;;;20.23;73.11;98611.44;5093223;28;20181;-54
2022/06/05 00:44:29;;;;;;;6.60;6.00;;;;;;;20.14;73.87;98611.69;5090837;28;20673;-52
2022/06/05 00:46:59;;;;;;;6.37;5.33;;;;;;;20.08;74.51;98617.03;5092895;28;20211;-54
2022/06/05 00:49:33;;;;;;;9.23;5.67;;;;;;;20.00;75.96;98626.06;5092911;28;20719;-52
2022/06/05 00:52:01;;;;;;;6.43;5.83;;;;;;;19.88;76.97;98621.41;5095271;28;20185;-54
2022/06/05 00:54:29;;;;;;;7.00;5.53;;;;;;;19.82;76.49;98624.88;5095777;28;20216;-51
2022/06/05 00:56:57;;;;;;;6.50;5.30;;;;;;;19.76;77.16;98637.13;5097280;28;20188;-53
2022/06/05 00:59:24;;;;;;;6.27;5.67;;;;;;;19.72;77.56;98646.50;5096481;28;20212;-52
2022/06/05 01:01:52;;;;;;;7.60;6.07;;;;;;;19.71;77.91;98644.88;5096417;28;20681;-53
2022/06/05 01:04:20;;;;;;;6.23;5.63;;;;;;;19.67;78.34;98637.59;5096818;28;20188;-52
2022/06/05 01:06:48;;;;;;;7.53;5.80;;;;;;;19.62;78.40;98625.78;5096616;28;20179;-52
2022/06/05 01:09:15;;;;;;;6.83;5.57;;;;;;;19.61;78.84;98608.28;5096399;28;20211;-52
2022/06/05 01:11:53;;;;;;;8.13;5.93;;;;;;;19.54;78.90;98601.38;5096695;28;20206;-54
2022/06/05 01:14:31;;;;;;;6.07;5.43;;;;;;;19.49;79.81;98596.72;5095450;28;20241;-53
2022/06/05 01:17:05;;;;;;;7.63;5.90;;;;;;;19.44;79.98;98580.63;5096857;28;20196;-52
2022/06/05 01:19:42;;;;;;;7.23;5.93;;;;;;;19.37;80.16;98548.09;5096864;28;20713;-53
2022/06/05 01:22:42;;;;;;;6.03;4.43;;;;;;;19.33;79.57;98523.91;5097067;28;20275;-53
2022/06/05 01:25:31;;;;;;;5.17;4.17;;;;;;;19.41;77.80;98499.00;5090134;28;20200;-53
2022/06/05 01:28:03;;;;;;;7.60;4.20;;;;;;;19.80;72.43;98468.03;5096379;28;20610;-52
2022/06/05 01:30:32;;;;;;;6.43;4.10;;;;;;;20.00;71.54;98440.59;5096315;28;20183;-53
2022/06/05 01:33:04;;;;;;;5.20;4.00;;;;;;;20.23;71.34;98433.84;5096073;28;20185;-53
2022/06/05 01:35:38;;;;;;;5.23;4.03;;;;;;;20.27;71.29;98419.16;5096214;28;20196;-54
2022/06/05 01:38:14;;;;;;;5.03;4.17;;;;;;;20.51;68.25;98390.97;5096209;28;20212;-52
2022/06/05 01:40:48;;;;;;;4.73;4.13;;;;;;;20.63;67.91;98370.63;5096197;28;20184;-52
2022/06/05 01:43:19;;;;;;;7.67;4.00;;;;;;;20.70;67.42;98359.94;5095929;28;20186;-53
2022/06/05 01:45:52;;;;;;;5.83;4.03;;;;;;;20.91;65.91;98358.66;5096133;28;20191;-54
2022/06/05 01:48:23;;;;;;;4.97;4.30;;;;;;;20.97;65.39;98362.28;5094270;28;20213;-53
2022/06/05 01:50:57;;;;;;;4.70;3.47;;;;;;;21.03;65.32;98376.47;5095822;28;20182;-52
2022/06/05 01:53:30;;;;;;;4.13;3.50;;;;;;;21.10;65.07;98387.81;5095809;28;20183;-54
2022/06/05 01:56:03;;;;;;;4.57;3.80;;;;;;;21.16;64.55;98365.69;5095929;28;20677;-52
2022/06/05 01:58:36;;;;;;;5.50;3.73;;;;;;;21.26;63.97;98345.75;5095909;28;20639;-54
2022/06/05 02:01:08;;;;;;;5.23;3.67;;;;;;;21.27;64.29;98332.22;5096116;28;20195;-52
2022/06/05 02:03:41;;;;;;;4.17;3.60;;;;;;;21.12;64.81;98321.25;5094272;28;20194;-53
2022/06/05 02:06:14;;;;;;;4.33;3.97;;;;;;;21.15;64.86;98310.19;5094686;28;20278;-53
2022/06/05 02:08:46;;;;;;;4.97;3.80;;;;;;;21.17;64.99;98318.72;5095411;28;20725;-54
2022/06/05 02:11:20;;;;;;;4.20;3.70;;;;;;;21.03;65.07;98305.66;5095334;28;20622;-52
2022/06/05 02:13:48;;;;;;;5.00;4.03;;;;;;;21.08;64.92;98297.00;5095066;28;20696;-52
2022/06/05 02:16:15;;;;;;;5.40;4.00;;;;;;;21.00;66.20;98268.97;5095156;28;20206;-52
2022/06/05 02:18:43;;;;;;;6.70;3.50;;;;;;;20.85;67.04;98250.00;5094874;28;20215;-52
2022/06/05 02:21:10;;;;;;;5.17;3.93;;;;;;;20.70;67.63;98250.38;5095335;28;20557;-54
2022/06/05 02:23:38;;;;;;;5.90;3.60;;;;;;;20.60;68.64;98250.94;5095507;28;20185;-52
2022/06/05 02:26:08;;;;;;;4.67;3.90;;;;;;;20.49;68.86;98250.66;5093895;28;20288;-54
2022/06/05 02:28:38;;;;;;;4.17;3.60;;;;;;;20.46;68.60;98259.06;5094923;28;20582;-53
2022/06/05 02:31:18;;;;;;;5.63;3.80;;;;;;;20.46;68.63;98269.66;5094003;28;20681;-53
2022/06/05 02:33:55;;;;;;;6.47;3.90;;;;;;;20.46;68.65;98280.28;5094955;28;20192;-52
2022/06/05 02:36:31;;;;;;;4.47;3.50;;;;;;;20.49;68.65;98287.78;5095281;28;20216;-52
2022/06/05 02:39:08;;;;;;;4.87;3.53;;;;;;;20.54;69.05;98291.59;5094944;28;20607;-52
2022/06/05 02:41:44;;;;;;;5.80;3.27;;;;;;;20.49;70.65;98306.34;5094785;28;20193;-53
2022/06/05 02:44:31;;;;;;;4.43;3.20;;;;;;;20.45;71.65;98334.34;5094888;28;20265;-54
2022/06/05 02:47:21;;;;;;;6.27;3.63;;;;;;;20.44;72.66;98435.31;5094884;28;20178;-53
2022/06/05 02:49:52;;;;;;;4.73;3.93;;;;;;;20.74;70.77;98583.91;5094752;28;20201;-53
2022/06/05 02:52:22;;;;;;;6.20;4.80;;;;;;;20.86;70.67;98615.06;5094451;28;20237;-52
2022/06/05 02:54:56;;;;;;;7.47;5.27;;;;;;;20.56;74.34;98658.94;5094272;28;20680;-54
2022/06/05 02:57:24;;;;;;;16.30;6.93;;;;;;;20.35;77.80;98660.06;5093756;28;20212;-52
2022/06/05 02:59:52;;;;;;;25.83;7.60;;;;;;;20.29;79.34;98639.72;5094698;28;20235;-52
2022/06/05 03:05:05;;;;;;;13.13;8.33;;;;;;;19.79;88.57;98659.75;5092988;28;20195;-52
2022/06/05 03:07:33;;;;;;;19.13;10.10;;;;;;;19.59;93.02;98636.00;5094069;28;20235;-53
2022/06/05 03:10:00;;;;;;;22.47;9.53;;;;;;;18.99;98.16;98591.97;5094304;28;20191;-51
2022/06/05 03:12:28;;;;;;;15.13;8.60;;;;;;;18.72;100.00;98555.78;5094382;28;20189;-53
2022/06/05 03:15:01;;;;;;;17.83;10.13;;;;;;;18.62;100.00;98515.72;5093572;28;20211;-54
2022/06/05 03:17:29;;;;;;;18.07;10.10;;;;;;;18.53;100.00;98478.13;5093762;28;20769;-53
2022/06/05 03:19:57;;;;;;;21.33;9.07;;;;;;;18.49;100.00;98478.75;5094022;28;20188;-54
2022/06/05 03:22:26;;;;;;;20.03;9.03;;;;;;;18.49;100.00;98476.09;5093961;28;20254;-53
2022/06/05 03:24:54;;;;;;;12.53;8.57;;;;;;;18.52;100.00;98504.75;5092423;28;20204;-51
2022/06/05 03:27:22;;;;;;;10.83;8.80;;;;;;;18.45;100.00;98523.28;5093345;28;20216;-52
2022/06/05 03:29:49;;;;;;;15.00;9.63;;;;;;;18.41;100.00;98538.72;5093574;28;20187;-54
2022/06/05 03:32:17;;;;;;;13.80;9.87;;;;;;;18.39;100.00;98543.41;5093543;28;20272;-52
2022/06/05 03:34:44;;;;;;;14.83;9.57;;;;;;;18.28;100.00;98534.25;5093810;28;20179;-53
2022/06/05 03:37:12;;;;;;;14.23;9.47;;;;;;;18.32;100.00;98525.94;5093132;28;20196;-54
2022/06/05 03:39:39;;;;;;;15.67;8.97;;;;;;;18.22;100.00;98518.38;5093337;28;20304;-52
2022/06/05 03:42:07;;;;;;;11.63;9.23;;;;;;;18.27;100.00;98511.50;5093466;28;20181;-52
2022/06/05 03:44:37;;;;;;;17.37;9.13;;;;;;;18.24;100.00;98505.78;5093278;28;20183;-51
2022/06/05 03:47:07;;;;;;;19.50;10.50;;;;;;;18.18;100.00;98522.44;5091833;28;20295;-52
2022/06/05 03:49:36;;;;;;;12.90;9.67;;;;;;;18.19;100.00;98518.78;5093013;28;20202;-54
2022/06/05 03:52:04;;;;;;;16.73;10.40;;;;;;;18.18;100.00;98533.03;5093257;28;20199;-53
2022/06/05 03:54:33;;;;;;;18.63;9.63;;;;;;;18.21;100.00;98537.91;5093162;28;20180;-52
2022/06/05 03:57:00;;;;;;;14.33;8.83;;;;;;;18.19;100.00;98532.00;5093175;28;20550;-52
2022/06/05 03:59:48;;;;;;;13.93;8.27;;;;;;;18.25;100.00;98533.84;5093354;28;20672;-52
2022/06/05 04:02:16;;;;;;;13.97;8.93;;;;;;;18.27;100.00;98576.72;5091671;28;20209;-53
2022/06/05 04:04:45;;;;;;;11.77;8.23;;;;;;;18.28;100.00;98610.06;5092944;28;20555;-53
2022/06/05 04:07:12;;;;;;;12.57;8.77;;;;;;;18.29;100.00;98616.97;5092838;28;20239;-52
2022/06/05 04:09:39;;;;;;;13.60;8.63;;;;;;;18.23;100.00;98607.19;5092719;28;20264;-52
2022/06/05 04:12:06;;;;;;;11.63;7.20;;;;;;;18.27;100.00;98596.03;5092800;28;20262;-52
2022/06/05 04:14:34;;;;;;;12.90;9.37;;;;;;;18.22;100.00;98581.78;5092882;28;20198;-53
2022/06/05 04:17:01;;;;;;;11.13;8.27;;;;;;;18.14;100.00;98562.47;5092861;28;20211;-51
2022/06/05 04:19:28;;;;;;;9.30;6.93;;;;;;;18.19;100.00;98534.66;5092473;28;20579;-54
2022/06/05 04:21:57;;;;;;;10.63;7.60;;;;;;;18.20;100.00;98502.75;5092594;28;20267;-51
2022/06/05 04:24:42;;;;;;;13.97;7.87;;;;;;;18.24;100.00;98490.78;5093637;28;20214;-52
2022/06/05 04:27:09;;;;;;;12.03;7.33;;;;;;;18.28;100.00;98514.94;5090429;28;20744;-53
2022/06/05 04:29:37;;;;;;;12.27;7.50;;;;;;;18.30;100.00;98515.53;5092421;28;20192;-52
2022/06/05 04:32:04;;;;;;;10.80;7.83;;;;;;;18.33;100.00;98538.13;5092601;28;20258;-52
2022/06/05 04:34:32;;;;;;;13.90;7.50;;;;;;;18.36;100.00;98529.78;5091537;28;20687;-51
2022/06/05 04:37:00;;;;;;;12.10;7.00;;;;;;;18.33;100.00;98519.63;5092467;28;20692;-52
2022/06/05 04:39:28;;;;;;;9.07;5.83;;;;;;;18.33;100.00;98523.06;5092439;28;20223;-51
2022/06/05 04:41:55;;;;;;;12.13;6.10;;;;;;;18.33;100.00;98525.72;5092813;28;20708;-52
2022/06/05 04:44:22;;;;;;;10.20;5.50;;;;;;;18.35;100.00;98530.81;5092568;28;20657;-54
2022/06/05 04:46:49;;;;;;;11.07;5.20;;;;;;;18.34;100.00;98532.63;5092727;28;20184;-52
2022/06/05 04:49:17;;;;;;;11.53;5.77;;;;;;;18.36;100.00;98519.22;5092224;28;20211;-51
2022/06/05 04:51:44;;;;;;;13.40;5.10;;;;;;;18.32;100.00;98521.44;5092144;28;20197;-53
2022/06/05 04:54:15;;;;;;;10.60;5.63;;;;;;;18.36;100.00;98532.44;5092483;28;20175;-52
2022/06/05 04:56:44;;;;;;;13.00;8.20;;;;;;;18.37;100.00;98523.50;5092695;28;20270;-53
2022/06/05 04:59:12;;;;;;;12.60;9.17;;;;;;;18.33;100.00;98514.34;5092302;28;20204;-53
2022/06/05 05:01:40;;;;;;;10.33;8.87;;;;;;;18.34;100.00;98516.75;5092544;28;20709;-54
2022/06/05 05:04:10;;;;;;;12.30;8.87;;;;;;;18.34;100.00;98514.13;5092464;28;20194;-52
2022/06/05 05:06:41;;;;;;;10.53;7.60;;;;;;;18.39;100.00;98513.53;5092360;28;20246;-52
2022/06/05 05:09:09;;;;;;;9.60;8.60;;;;;;;18.39;100.00;98516.97;5092059;28;20213;-52
2022/06/05 05:11:38;;;;;;;13.90;8.97;;;;;;;18.41;100.00;98519.41;5092047;28;20600;-54
2022/06/05 05:14:06;;;;;;;11.33;7.60;;;;;;;18.49;100.00;98506.00;5092069;28;20215;-53
2022/06/05 05:16:34;;;;;;;11.27;9.63;;;;;;;18.54;100.00;98508.84;5092186;28;20197;-53
2022/06/05 05:19:01;;;;;;;13.70;9.43;;;;;;;18.72;100.00;98517.94;5092295;28;20223;-54
2022/06/05 05:21:29;;;;;;;16.30;11.03;;;;;;;18.97;100.00;98517.31;5092348;28;20236;-51
2022/06/05 05:23:56;;;;;;;12.83;11.37;;;;;;;19.07;100.00;98512.38;5092405;28;20189;-52
2022/06/05 05:26:42;;;;;;;13.17;11.03;;;;;;;19.23;100.00;98529.63;5092681;28;20269;-52
2022/06/05 05:29:09;;;;;;;14.30;11.77;;;;;;;19.25;100.00;98535.50;5090535;28;20213;-53
2022/06/05 05:31:40;;;;;;;12.07;10.20;;;;;;;19.31;100.00;98539.97;5092341;28;20196;-52
2022/06/05 05:34:09;;;;;;;11.00;9.70;;;;;;;19.27;100.00;98538.75;5092164;28;20649;-53
2022/06/05 05:36:36;;;;;;;13.30;10.43;;;;;;;19.30;100.00;98522.47;5091914;28;20270;-52
2022/06/05 05:42:08;;;;;;;17.87;10.33;;;;;;;19.33;100.00;98519.41;5077986;28;20211;-52
2022/06/05 05:44:39;;;;;;;12.10;9.87;;;;;;;19.30;100.00;98513.72;5096108;28;20192;-53
2022/06/05 05:47:08;;;;;;;10.07;9.07;;;;;;;19.29;100.00;98518.19;5094386;28;20262;-53
2022/06/05 05:49:36;;;;;;;10.80;9.73;;;;;;;19.27;100.00;98512.31;5095566;28;20181;-51
2022/06/05 05:52:04;;;;;;;11.27;8.93;;;;;;;19.15;100.00;98506.88;5095874;28;20190;-52
2022/06/05 05:54:31;;;;;;;10.23;8.60;;;;;;;19.15;100.00;98498.94;5095714;28;20184;-51
2022/06/05 05:57:00;;;;;;;7.90;7.20;;;;;;;19.14;100.00;98502.59;5095472;28;20238;-53
2022/06/05 05:59:45;;;;;;;9.87;7.53;;;;;;;19.11;100.00;98483.66;5096121;28;20339;-53
2022/06/05 06:02:18;;;;;;;8.20;7.30;;;;;;;19.09;100.00;98468.03;5094348;28;20617;-52
2022/06/05 06:04:46;;;;;;;9.30;6.60;;;;;;;19.09;100.00;98451.31;5095556;28;20232;-53
2022/06/05 06:07:14;;;;;;;8.83;6.33;;;;;;;19.11;100.00;98438.69;5095441;28;20187;-53
2022/06/05 06:09:43;;;;;;;7.97;6.70;;;;;;;19.15;100.00;98422.19;5095690;28;20199;-52
2022/06/05 06:12:13;;;;;;;7.43;4.93;;;;;;;19.20;100.00;98407.53;5095718;28;20187;-52
2022/06/05 06:14:41;;;;;;;6.40;5.00;;;;;;;19.31;100.00;98385.69;5095215;28;20187;-52
2022/06/05 06:17:26;;;;;;;8.33;4.90;;;;;;;19.35;100.00;98364.88;5095256;28;20221;-52
2022/06/05 06:19:54;;;;;;;7.70;4.47;;;;;;;19.43;100.00;98364.63;5095279;28;20206;-54
2022/06/05 06:22:21;;;;;;;4.93;4.47;;;;;;;19.36;100.00;98361.22;5095350;28;20259;-52
2022/06/05 06:24:49;;;;;;;6.17;5.07;;;;;;;19.52;100.00;98350.09;5095115;28;20185;-53
2022/06/05 06:27:17;;;;;;;9.37;5.07;;;;;;;19.53;100.00;98354.38;5095186;28;20193;-52
2022/06/05 06:29:45;;;;;;;8.00;5.17;;;;;;;19.51;100.00;98359.06;5094086;28;20196;-52
2022/06/05 06:32:12;;;;;;;7.13;4.30;;;;;;;19.55;100.00;98362.09;5095236;28;20186;-52
2022/06/05 06:34:40;;;;;;;7.17;4.77;;;;;;;19.59;100.00;98366.75;5095143;28;20268;-53
2022/06/05 06:37:07;;;;;;;9.23;5.27;;;;;;;19.58;100.00;98366.97;5095037;28;20609;-54
2022/06/05 06:39:52;;;;;;;7.27;4.60;;;;;;;19.68;100.00;98377.88;5095675;28;20332;-54
2022/06/05 06:42:21;;;;;;;14.80;4.77;;;;;;;19.75;100.00;98383.91;5095372;28;20193;-52
2022/06/05 06:44:50;;;;;;;6.80;5.00;;;;;;;19.68;100.00;98377.88;5093897;28;20247;-53
2022/06/05 06:47:18;;;;;;;7.30;4.60;;;;;;;19.76;100.00;98377.59;5093481;28;20229;-55
2022/06/05 06:49:44;;;;;;;7.80;5.17;;;;;;;19.85;100.00;98356.97;5094065;28;20606;-54
2022/06/05 06:52:12;;;;;;;8.20;4.77;;;;;;;19.88;99.69;98345.94;5095096;28;20178;-52
2022/06/05 06:54:38;;;;;;;7.63;4.90;;;;;;;19.94;99.44;98362.00;5095232;28;20197;-54
2022/06/05 06:57:14;;;;;;;6.70;5.97;;;;;;;19.92;98.87;98364.84;5095350;28;20269;-54
2022/06/05 06:59:43;;;;;;;9.00;5.60;;;;;;;20.00;99.07;98353.19;5094312;28;20194;-53
2022/06/05 07:02:11;;;;;;;9.83;5.77;;;;;;;20.09;98.82;98361.66;5095646;28;20189;-52
2022/06/05 07:04:38;;;;;;;8.20;5.37;;;;;;;20.05;98.38;98379.84;5094936;28;20185;-52
2022/06/05 07:07:05;;;;;;;7.43;5.37;;;;;;;20.25;98.64;98384.94;5094776;28;20187;-53
2022/06/05 07:09:33;;;;;;;9.20;5.53;;;;;;;20.30;99.26;98378.94;5094436;28;20191;-54
2022/06/05 07:12:00;;;;;;;7.07;5.17;;;;;;;20.28;98.04;98378.38;5094688;28;20718;-53
2022/06/05 07:14:28;;;;;;;7.63;5.40;;;;;;;20.42;93.59;98366.59;5093196;28;20308;-52
2022/06/05 07:17:14;;;;;;;7.63;5.03;;;;;;;20.63;91.45;98356.56;5094492;28;20700;-54
2022/06/05 07:19:42;;;;;;;8.00;5.40;;;;;;;20.86;88.64;98358.53;5093107;28;20200;-52
2022/06/05 07:22:09;;;;;;;7.30;4.77;;;;;;;21.21;89.55;98362.34;5094702;28;20223;-52
2022/06/05 07:24:37;;;;;;;8.33;5.20;;;;;;;21.06;91.68;98362.75;5094588;28;20191;-52
2022/06/05 07:27:05;;;;;;;9.10;6.70;;;;;;;21.33;88.67;98362.38;5094631;28;20210;-54
2022/06/05 07:29:38;;;;;;;8.07;7.30;;;;;;;21.05;90.80;98351.34;5095336;28;20645;-54
2022/06/05 07:32:05;;;;;;;10.37;7.57;;;;;;;21.00;92.77;98345.09;5095148;28;20198;-55
2022/06/05 07:34:52;;;;;;;12.83;8.20;;;;;;;20.70;95.75;98332.59;5094806;28;20201;-54
2022/06/05 07:37:20;;;;;;;11.07;9.17;;;;;;;20.28;100.00;98335.97;5093936;28;20252;-53
2022/06/05 07:39:47;;;;;;;11.67;10.27;;;;;;;20.10;100.00;98340.25;5094396;28;20202;-54
2022/06/05 07:42:14;;;;;;;13.40;11.03;;;;;;;19.78;100.00;98356.19;5093885;28;20189;-54
2022/06/05 07:44:41;;;;;;;11.60;10.40;;;;;;;19.58;100.00;98356.38;5093730;28;20190;-54
2022/06/05 07:47:09;;;;;;;12.53;11.30;;;;;;;19.53;100.00;98354.38;5093538;28;20178;-55
2022/06/05 07:49:39;;;;;;;14.20;11.33;;;;;;;19.51;100.00;98339.75;5093565;28;20598;-53
2022/06/05 07:55:10;;;;;;;16.20;10.00;;;;;;;20.21;99.71;98352.75;5093447;28;20275;-52
2022/06/05 07:57:38;;;;;;;15.63;10.33;;;;;;;20.40;94.95;98379.25;5093161;28;20225;-53
2022/06/05 08:00:08;;;;;;;14.37;11.43;;;;;;;20.65;93.96;98395.09;5093563;28;20201;-52
2022/06/05 08:02:36;;;;;;;12.13;10.83;;;;;;;20.88;95.82;98398.13;5093773;28;20215;-54
2022/06/05 08:05:05;;;;;;;14.43;10.97;;;;;;;21.05;94.92;98406.25;5092791;28;20254;-54
2022/06/05 08:07:34;;;;;;;13.43;11.07;;;;;;;21.01;93.47;98416.50;5092054;28;20720;-52
2022/06/05 08:10:04;;;;;;;14.20;11.53;;;;;;;21.00;92.25;98436.13;5093497;28;20654;-53
2022/06/05 08:12:34;;;;;;;15.30;13.17;;;;;;;20.59;95.91;98438.41;5093442;28;20191;-52
2022/06/05 08:15:03;;;;;;;16.57;13.63;;;;;;;20.42;98.00;98440.00;5091936;28;20202;-51
2022/06/05 08:17:32;;;;;;;16.13;13.03;;;;;;;20.34;96.92;98436.63;5093085;28;20579;-52
2022/06/05 08:20:00;;;;;;;13.20;11.90;;;;;;;20.26;97.10;98442.19;5093158;28;20189;-53
2022/06/05 08:22:28;;;;;;;16.57;12.77;;;;;;;20.38;96.91;98450.22;5092971;28;20181;-52
2022/06/05 08:24:57;;;;;;;16.63;11.67;;;;;;;20.58;93.77;98459.81;5091744;28;20203;-52
2022/06/05 08:27:27;;;;;;;15.07;12.53;;;;;;;20.16;97.61;98458.59;5092777;28;20211;-54
2022/06/05 08:29:56;;;;;;;17.37;13.37;;;;;;;20.13;99.14;98464.34;5092962;28;20192;-52
2022/06/05 08:32:24;;;;;;;15.50;12.60;;;;;;;20.02;99.65;98473.00;5092736;28;20178;-52
2022/06/05 08:34:52;;;;;;;13.87;12.37;;;;;;;20.05;98.67;98476.00;5092874;28;20783;-54
2022/06/05 08:43:20;;;;;;;19.37;12.13;;;;;;;20.23;97.72;98494.81;5092742;28;20189;-54
2022/06/05 08:45:55;;;;;;;14.80;12.63;;;;;;;20.21;98.29;98489.75;5091382;28;20188;-52
2022/06/05 08:48:30;;;;;;;16.53;13.37;;;;;;;20.27;98.05;98491.53;5092582;28;20236;-52
2022/06/05 08:51:03;;;;;;;14.80;13.30;;;;;;;20.12;98.15;98485.75;5093302;28;20571;-52
2022/06/05 08:53:42;;;;;;;20.13;14.57;;;;;;;20.22;96.40;98478.13;5092771;28;20188;-52
2022/06/05 08:56:19;;;;;;;16.20;13.70;;;;;;;20.15;97.60;98480.00;5092860;28;20192;-51
2022/06/05 08:58:51;;;;;;;17.00;14.10;;;;;;;20.08;98.21;98479.25;5092652;28;20299;-54
2022/06/05 09:01:23;;;;;;;18.57;14.60;;;;;;;20.19;97.75;98470.59;5093527;28;20188;-54
2022/06/05 09:03:57;;;;;;;16.57;12.67;;;;;;;20.35;98.14;98475.34;5093437;28;20189;-54
2022/06/05 09:06:31;;;;;;;14.87;13.13;;;;;;;20.65;96.41;98479.97;5093089;28;20181;-53
2022/06/05 09:08:59;;;;;;;15.77;12.63;;;;;;;20.84;95.91;98472.00;5092624;28;20219;-54
2022/06/05 09:11:37;;;;;;;14.77;13.13;;;;;;;20.64;95.01;98459.78;5092769;28;20277;-53
2022/06/05 09:14:08;;;;;;;14.23;11.50;;;;;;;20.74;95.99;98466.38;5096492;28;20189;-52
2022/06/05 09:16:41;;;;;;;14.17;11.10;;;;;;;21.13;95.34;98466.97;5096594;28;20201;-52
2022/06/05 09:19:10;;;;;;;14.17;12.50;;;;;;;21.78;92.07;98467.34;5096233;28;20691;-53
2022/06/05 09:21:42;;;;;;;13.63;10.70;;;;;;;22.26;88.58;98469.00;5096382;28;20177;-52
2022/06/05 09:24:16;;;;;;;13.37;11.03;;;;;;;22.56;84.89;98465.44;5096271;28;20184;-52
2022/06/05 09:26:53;;;;;;;13.40;10.03;;;;;;;22.81;81.45;98458.22;5095989;28;20697;-53
2022/06/05 09:29:34;;;;;;;11.23;9.80;;;;;;;22.73;83.43;98451.41;5095811;28;20302;-54
2022/06/05 09:32:38;;;;;;;11.67;8.13;;;;;;;23.28;82.48;98443.97;5096210;28;20257;-54
2022/06/05 09:35:17;;;;;;;9.63;8.63;;;;;;;23.53;77.74;98435.63;5053904;28;20681;-52
2022/06/05 09:37:50;;;;;;;10.17;8.17;;;;;;;23.61;79.37;98430.94;5095617;28;20685;-52
2022/06/05 09:40:23;;;;;;;9.47;8.50;;;;;;;23.79;77.08;98436.06;5096150;28;20182;-52
2022/06/05 09:43:09;;;;;;;9.17;7.30;;;;;;;24.22;72.36;98432.97;5096265;28;20186;-52
2022/06/05 09:45:49;;;;;;;8.77;7.87;;;;;;;24.14;74.22;98429.66;5095709;28;20650;-52
2022/06/05 09:48:26;;;;;;;9.13;8.00;;;;;;;24.28;73.60;98414.13;5095615;28;20201;-52
2022/06/05 09:51:01;;;;;;;8.80;7.90;;;;;;;23.99;74.76;98408.09;5095946;28;20185;-53
2022/06/05 09:53:35;;;;;;;11.30;8.60;;;;;;;24.23;72.13;98421.25;5095821;28;20671;-52
2022/06/05 09:56:12;;;;;;;13.63;8.73;;;;;;;24.24;73.36;98433.53;5095901;28;20270;-54
2022/06/05 09:59:09;;;;;;;8.67;7.77;;;;;;;24.24;74.11;98423.69;5095219;28;20227;-54
2022/06/05 10:01:50;;;;;;;10.07;7.73;;;;;;;24.35;74.05;98424.63;5095607;28;20212;-52
2022/06/05 10:04:17;;;;;;;10.17;7.93;;;;;;;24.44;73.89;98423.13;5095562;28;20185;-54
2022/06/05 10:06:51;;;;;;;14.37;7.70;;;;;;;24.29;73.87;98430.94;5095555;28;20208;-54
2022/06/05 10:09:26;;;;;;;9.60;8.67;;;;;;;24.03;75.36;98423.38;5095062;28;20205;-53
2022/06/05 10:12:00;;;;;;;10.83;7.87;;;;;;;24.58;72.50;98415.56;5095559;28;20192;-52
2022/06/05 10:14:58;;;;;;;8.13;7.37;;;;;;;24.76;71.62;98419.84;5094077;28;20210;-55
2022/06/05 10:17:45;;;;;;;8.27;7.40;;;;;;;24.86;71.33;98424.47;5095129;28;20213;-52
2022/06/05 10:20:54;;;;;;;8.53;7.47;;;;;;;25.12;70.68;98424.75;5095097;28;20195;-54
2022/06/05 10:23:37;;;;;;;9.07;7.77;;;;;;;25.30;69.51;98430.81;5012087;28;20224;-55
2022/06/05 10:26:28;;;;;;;8.47;7.07;;;;;;;24.51;72.44;98425.63;5012739;28;20207;-55
2022/06/05 10:29:17;;;;;;;10.23;7.87;;;;;;;25.04;70.89;98425.19;5074724;28;20226;-55
2022/06/05 10:32:01;;;;;;;10.67;7.37;;;;;;;25.45;72.59;98432.84;5093644;28;20203;-53
2022/06/05 10:34:37;;;;;;;8.03;7.17;;;;;;;25.78;71.04;98430.97;5094694;28;20610;-53
2022/06/05 10:37:22;;;;;;;9.43;6.73;;;;;;;25.53;70.16;98428.88;5094418;28;20227;-53
2022/06/05 10:40:05;;;;;;;8.77;6.63;;;;;;;25.65;69.08;98424.19;5094581;28;20635;-52
2022/06/05 10:42:45;;;;;;;7.60;6.33;;;;;;;25.91;68.70;98413.69;5094603;28;20178;-52
2022/06/05 10:45:20;;;;;;;7.93;6.53;;;;;;;25.63;68.89;98411.09;5094486;28;20629;-54
2022/06/05 10:48:19;;;;;;;8.73;6.53;;;;;;;25.20;71.97;98413.63;5094050;28;20210;-53
2022/06/05 10:50:52;;;;;;;7.30;6.40;;;;;;;24.99;70.41;98406.47;5094670;28;20279;-53
2022/06/05 10:53:34;;;;;;;10.10;7.20;;;;;;;24.82;71.92;98395.88;5094798;28;20181;-53
2022/06/05 10:56:13;;;;;;;8.07;6.30;;;;;;;24.79;72.80;98407.03;5094533;28;20190;-52
2022/06/05 10:58:49;;;;;;;6.97;5.77;;;;;;;24.88;72.86;98398.34;5093907;28;20220;-51
2022/06/05 11:01:31;;;;;;;6.77;5.60;;;;;;;25.36;70.40;98403.09;5094402;28;20210;-50
2022/06/05 11:04:14;;;;;;;8.03;6.00;;;;;;;25.88;69.62;98411.53;5094196;28;20274;-53
2022/06/05 11:06:51;;;;;;;6.43;5.13;;;;;;;26.14;62.52;98425.09;5094064;28;20192;-53
2022/06/05 11:09:40;;;;;;;10.03;6.03;;;;;;;25.73;66.69;98420.25;5092511;28;20214;-52
2022/06/05 11:15:05;;;;;;;6.77;5.77;;;;;;;26.78;60.31;98424.06;5093814;28;20206;-51
2022/06/05 11:17:41;;;;;;;7.63;5.63;;;;;;;27.06;61.53;98427.38;5093457;28;20216;-50
2022/06/05 11:20:16;;;;;;;9.47;5.73;;;;;;;27.28;58.63;98412.16;5093703;28;20249;-53
2022/06/05 11:22:54;;;;;;;7.03;5.80;;;;;;;27.34;60.87;98414.56;5092502;28;20216;-52
2022/06/05 11:25:26;;;;;;;10.57;6.10;;;;;;;27.07;61.02;98431.66;5094213;28;20186;-51
2022/06/05 11:28:01;;;;;;;9.87;5.90;;;;;;;26.59;62.34;98420.25;5093417;28;20227;-52
2022/06/05 11:30:39;;;;;;;11.88;5.72;;;;;;;26.30;61.68;98426.81;5093627;28;20716;-52
2022/06/05 11:33:14;;;;;;;9.40;5.72;;;;;;;25.73;63.64;98409.56;5092294;28;20202;-52
2022/06/05 11:35:59;;;;;;;7.37;5.13;;;;;;;26.00;59.84;98397.94;5093077;28;20204;-52
2022/06/05 11:38:38;;;;;;;8.97;5.37;;;;;;;26.01;59.27;98394.22;5093280;28;20581;-50
2022/06/05 11:41:19;;;;;;;7.17;5.40;;;;;;;25.37;60.96;98412.72;5093450;28;20233;-51
2022/06/05 11:44:06;;;;;;;11.30;5.40;;;;;;;25.46;61.55;98407.72;5093677;28;20262;-52
2022/06/05 11:46:39;;;;;;;6.77;5.17;;;;;;;25.44;60.76;98418.66;5093458;28;20702;-53
2022/06/05 11:49:14;;;;;;;6.80;4.97;;;;;;;25.27;61.06;98417.97;5093072;28;20202;-51
2022/06/05 11:52:00;;;;;;;8.30;5.50;;;;;;;24.70;61.72;98418.13;5093408;28;20693;-53
2022/06/05 11:54:31;;;;;;;6.30;5.13;;;;;;;24.45;64.54;98414.09;5092183;28;20198;-52
2022/06/05 11:57:09;;;;;;;6.50;3.23;;;;;;;23.30;67.27;98436.56;5093413;28;20190;-50
2022/06/05 11:59:42;;;;;;;5.30;2.53;;;;;;;23.06;68.33;98449.94;5093451;28;20564;-52
2022/06/05 12:02:34;;;;;;;2.13;1.83;;;;;;;22.59;69.27;98460.69;5093479;28;20566;-50
2022/06/05 12:05:05;;;;;;;5.03;2.00;;;;;;;22.06;75.00;98477.31;5093234;28;20179;-50
2022/06/05 12:07:34;;;;;;;5.63;2.20;;;;;;;21.90;77.04;98477.97;5091794;28;20209;-51